sensor_id;sensor_type;location;lat;lon;timestamp;pressure;altitude;pressure_sealevel;temperature;humidity
66742;BME280;53654;54.152;19.432;2023-05-02T00:02:15;101331.13;;;11.75;46.07
66742;BME280;53654;54.152;19.432;2023-05-02T00:04:44;101327.45;;;11.75;46.08
66742;BME280;53654;54.152;19.432;2023-05-02T00:07:12;101329.39;;;11.75;46.18
66742;BME280;53654;54.152;19.432;2023-05-02T00:09:40;101323.96;;;11.74;46.20
66742;BME280;53654;54.152;19.432;2023-05-02T00:12:08;101321.00;;;11.75;46.32
66742;BME280;53654;54.152;19.432;2023-05-02T00:14:36;101318.20;;;11.75;46.24
66742;BME280;53654;54.152;19.432;2023-05-02T00:17:04;101318.89;;;11.76;46.33
66742;BME280;53654;54.152;19.432;2023-05-02T00:19:37;101313.48;;;11.75;46.36
66742;BME280;53654;54.152;19.432;2023-05-02T00:22:05;101311.05;;;11.72;46.53
66742;BME280;53654;54.152;19.432;2023-05-02T00:24:33;101309.84;;;11.70;46.65
66742;BME280;53654;54.152;19.432;2023-05-02T00:27:02;101304.24;;;11.68;46.66
66742;BME280;53654;54.152;19.432;2023-05-02T00:29:30;101298.14;;;11.62;46.61
66742;BME280;53654;54.152;19.432;2023-05-02T00:31:59;101298.67;;;11.63;46.79
66742;BME280;53654;54.152;19.432;2023-05-02T00:34:30;101295.38;;;11.60;47.01
66742;BME280;53654;54.152;19.432;2023-05-02T00:36:58;101287.86;;;11.58;47.01
66742;BME280;53654;54.152;19.432;2023-05-02T00:39:26;101282.27;;;11.56;47.12
66742;BME280;53654;54.152;19.432;2023-05-02T00:41:58;101275.11;;;11.55;47.15
66742;BME280;53654;54.152;19.432;2023-05-02T00:44:27;101275.99;;;11.54;47.17
66742;BME280;53654;54.152;19.432;2023-05-02T00:46:56;101269.88;;;11.54;47.18
66742;BME280;53654;54.152;19.432;2023-05-02T00:49:24;101268.48;;;11.55;47.14
66742;BME280;53654;54.152;19.432;2023-05-02T00:51:53;101270.23;;;11.56;47.18
66742;BME280;53654;54.152;19.432;2023-05-02T00:54:21;101267.07;;;11.58;47.12
66742;BME280;53654;54.152;19.432;2023-05-02T00:56:50;101264.98;;;11.58;47.15
66742;BME280;53654;54.152;19.432;2023-05-02T00:59:18;101263.04;;;11.60;47.10
66742;BME280;53654;54.152;19.432;2023-05-02T01:10:27;101255.20;;;11.56;47.07
66742;BME280;53654;54.152;19.432;2023-05-02T01:13:03;101255.02;;;11.57;47.18
66742;BME280;53654;54.152;19.432;2023-05-02T01:15:37;101250.98;;;11.57;47.14
66742;BME280;53654;54.152;19.432;2023-05-02T01:18:08;101250.81;;;11.59;47.10
66742;BME280;53654;54.152;19.432;2023-05-02T01:20:40;101246.95;;;11.61;47.12
66742;BME280;53654;54.152;19.432;2023-05-02T01:23:24;101246.42;;;11.62;47.09
66742;BME280;53654;54.152;19.432;2023-05-02T01:31:09;101243.64;;;11.62;47.28
66742;BME280;53654;54.152;19.432;2023-05-02T01:33:39;101247.46;;;11.64;47.31
66742;BME280;53654;54.152;19.432;2023-05-02T01:36:07;101247.13;;;11.63;47.32
66742;BME280;53654;54.152;19.432;2023-05-02T01:38:37;101245.20;;;11.63;47.22
66742;BME280;53654;54.152;19.432;2023-05-02T01:41:07;101243.27;;;11.64;47.32
66742;BME280;53654;54.152;19.432;2023-05-02T01:43:37;101245.54;;;11.66;47.44
66742;BME280;53654;54.152;19.432;2023-05-02T01:46:08;101247.98;;;11.65;47.38
66742;BME280;53654;54.152;19.432;2023-05-02T01:48:37;101253.05;;;11.63;47.49
66742;BME280;53654;54.152;19.432;2023-05-02T01:51:08;101245.90;;;11.62;47.50
66742;BME280;53654;54.152;19.432;2023-05-02T01:53:37;101239.80;;;11.61;47.67
66742;BME280;53654;54.152;19.432;2023-05-02T01:56:06;101240.67;;;11.58;47.66
66742;BME280;53654;54.152;19.432;2023-05-02T01:58:35;101241.02;;;11.57;47.84
66742;BME280;53654;54.152;19.432;2023-05-02T02:01:05;101237.38;;;11.56;47.87
66742;BME280;53654;54.152;19.432;2023-05-02T02:03:34;101237.73;;;11.55;47.85
66742;BME280;53654;54.152;19.432;2023-05-02T02:06:03;101237.73;;;11.54;48.08
66742;BME280;53654;54.152;19.432;2023-05-02T02:08:32;101234.24;;;11.53;48.15
66742;BME280;53654;54.152;19.432;2023-05-02T02:11:06;101229.35;;;11.51;48.31
66742;BME280;53654;54.152;19.432;2023-05-02T02:13:44;101231.27;;;11.49;48.42
66742;BME280;53654;54.152;19.432;2023-05-02T02:16:21;101227.98;;;11.45;48.68
66742;BME280;53654;54.152;19.432;2023-05-02T02:18:53;101224.85;;;11.44;48.87
66742;BME280;53654;54.152;19.432;2023-05-02T02:21:26;101220.13;;;11.43;48.98
66742;BME280;53654;54.152;19.432;2023-05-02T02:23:59;101219.27;;;11.40;49.15
66742;BME280;53654;54.152;19.432;2023-05-02T02:26:28;101222.60;;;11.37;49.19
66742;BME280;53654;54.152;19.432;2023-05-02T02:28:56;101220.34;;;11.36;49.33
66742;BME280;53654;54.152;19.432;2023-05-02T02:31:33;101213.71;;;11.35;49.47
66742;BME280;53654;54.152;19.432;2023-05-02T02:34:02;101214.95;;;11.30;49.65
66742;BME280;53654;54.152;19.432;2023-05-02T02:36:41;101224.23;;;11.26;49.86
66742;BME280;53654;54.152;19.432;2023-05-02T02:39:20;101224.92;;;11.23;49.82
66742;BME280;53654;54.152;19.432;2023-05-02T02:47:19;101227.23;;;11.11;50.42
66742;BME280;53654;54.152;19.432;2023-05-02T02:50:00;101220.97;;;11.06;50.51
66742;BME280;53654;54.152;19.432;2023-05-02T02:58:10;101219.07;;;10.98;50.97
66742;BME280;53654;54.152;19.432;2023-05-02T03:00:43;101214.73;;;10.90;51.33
66742;BME280;53654;54.152;19.432;2023-05-02T03:03:13;101213.34;;;10.87;51.37
66742;BME280;53654;54.152;19.432;2023-05-02T03:05:44;101208.45;;;10.85;51.58
66742;BME280;53654;54.152;19.432;2023-05-02T03:08:14;101213.00;;;10.84;51.63
66742;BME280;53654;54.152;19.432;2023-05-02T03:10:42;101210.04;;;10.83;51.64
66742;BME280;53654;54.152;19.432;2023-05-02T03:13:11;101213.71;;;10.80;51.70
66742;BME280;53654;54.152;19.432;2023-05-02T03:18:24;101208.13;;;10.76;51.86
66742;BME280;53654;54.152;19.432;2023-05-02T03:20:53;101208.13;;;10.76;52.02
66742;BME280;53654;54.152;19.432;2023-05-02T03:23:22;101209.52;;;10.79;51.87
66742;BME280;53654;54.152;19.432;2023-05-02T03:25:50;101204.81;;;10.81;51.88
66742;BME280;53654;54.152;19.432;2023-05-02T03:28:20;101201.13;;;10.82;52.02
66742;BME280;53654;54.152;19.432;2023-05-02T03:30:49;101203.93;;;10.83;52.04
66742;BME280;53654;54.152;19.432;2023-05-02T03:33:17;101203.75;;;10.85;51.92
66742;BME280;53654;54.152;19.432;2023-05-02T03:35:46;101206.36;;;10.88;52.05
66742;BME280;53654;54.152;19.432;2023-05-02T03:38:14;101200.59;;;10.91;51.94
66742;BME280;53654;54.152;19.432;2023-05-02T03:40:43;101193.07;;;10.94;51.95
66742;BME280;53654;54.152;19.432;2023-05-02T03:43:11;101192.02;;;10.98;51.96
66742;BME280;53654;54.152;19.432;2023-05-02T03:45:39;101194.61;;;11.03;51.87
66742;BME280;53654;54.152;19.432;2023-05-02T03:48:07;101198.97;;;11.06;51.89
66742;BME280;53654;54.152;19.432;2023-05-02T03:50:36;101206.48;;;11.10;51.59
66742;BME280;53654;54.152;19.432;2023-05-02T03:53:05;101208.02;;;11.12;51.58
66742;BME280;53654;54.152;19.432;2023-05-02T03:55:39;101213.61;;;11.15;51.49
66742;BME280;53654;54.152;19.432;2023-05-02T03:58:09;101220.92;;;11.20;51.52
66742;BME280;53654;54.152;19.432;2023-05-02T04:00:37;101220.39;;;11.24;51.39
66742;BME280;53654;54.152;19.432;2023-05-02T04:03:06;101219.66;;;11.31;51.53
66742;BME280;53654;54.152;19.432;2023-05-02T04:05:37;101216.14;;;11.38;51.37
66742;BME280;53654;54.152;19.432;2023-05-02T04:08:05;101212.96;;;11.44;51.12
66742;BME280;53654;54.152;19.432;2023-05-02T04:10:34;101210.67;;;11.49;51.03
66742;BME280;53654;54.152;19.432;2023-05-02T04:13:04;101212.74;;;11.53;51.04
66742;BME280;53654;54.152;19.432;2023-05-02T04:15:34;101204.86;;;11.56;51.20
66742;BME280;53654;54.152;19.432;2023-05-02T04:18:03;101205.55;;;11.61;51.33
66742;BME280;53654;54.152;19.432;2023-05-02T04:20:31;101207.63;;;11.63;51.24
66742;BME280;53654;54.152;19.432;2023-05-02T04:23:00;101202.20;;;11.65;51.18
66742;BME280;53654;54.152;19.432;2023-05-02T04:25:28;101209.16;;;11.70;51.13
66742;BME280;53654;54.152;19.432;2023-05-02T04:27:59;101210.36;;;11.73;50.91
66742;BME280;53654;54.152;19.432;2023-05-02T04:30:28;101211.41;;;11.75;50.83
66742;BME280;53654;54.152;19.432;2023-05-02T04:33:02;101217.35;;;11.76;50.82
66742;BME280;53654;54.152;19.432;2023-05-02T04:35:33;101221.38;;;11.76;50.64
66742;BME280;53654;54.152;19.432;2023-05-02T04:38:02;101225.91;;;11.80;50.67
66742;BME280;53654;54.152;19.432;2023-05-02T04:40:32;101227.30;;;11.82;50.55
66742;BME280;53654;54.152;19.432;2023-05-02T04:43:04;101225.55;;;11.83;50.59
66742;BME280;53654;54.152;19.432;2023-05-02T04:45:40;101224.67;;;11.84;50.42
66742;BME280;53654;54.152;19.432;2023-05-02T04:48:14;101227.45;;;11.85;50.56
66742;BME280;53654;54.152;19.432;2023-05-02T04:50:44;101234.08;;;11.88;50.72
66742;BME280;53654;54.152;19.432;2023-05-02T04:53:12;101237.38;;;11.92;50.64
66742;BME280;53654;54.152;19.432;2023-05-02T04:55:41;101240.68;;;11.96;50.72
66742;BME280;53654;54.152;19.432;2023-05-02T04:58:10;101238.39;;;11.98;50.68
66742;BME280;53654;54.152;19.432;2023-05-02T05:00:39;101239.59;;;12.03;50.83
66742;BME280;53654;54.152;19.432;2023-05-02T05:03:07;101239.20;;;12.08;50.87
66742;BME280;53654;54.152;19.432;2023-05-02T05:05:35;101238.11;;;12.14;50.79
66742;BME280;53654;54.152;19.432;2023-05-02T05:08:06;101227.92;;;12.20;50.82
66742;BME280;53654;54.152;19.432;2023-05-02T05:10:36;101236.63;;;12.25;50.64
66742;BME280;53654;54.152;19.432;2023-05-02T05:13:04;101238.68;;;12.31;50.42
66742;BME280;53654;54.152;19.432;2023-05-02T05:15:33;101242.50;;;12.35;50.35
66742;BME280;53654;54.152;19.432;2023-05-02T05:18:02;101242.83;;;12.38;50.28
66742;BME280;53654;54.152;19.432;2023-05-02T05:20:30;101245.42;;;12.41;50.22
66742;BME280;53654;54.152;19.432;2023-05-02T05:23:00;101245.04;;;12.44;50.10
66742;BME280;53654;54.152;19.432;2023-05-02T05:25:29;101245.36;;;12.49;50.29
66742;BME280;53654;54.152;19.432;2023-05-02T05:27:59;101244.11;;;12.51;50.19
66742;BME280;53654;54.152;19.432;2023-05-02T05:30:27;101248.61;;;12.56;50.28
66742;BME280;53654;54.152;19.432;2023-05-02T05:32:59;101245.79;;;12.60;50.59
66742;BME280;53654;54.152;19.432;2023-05-02T05:35:27;101242.09;;;12.63;50.83
66742;BME280;53654;54.152;19.432;2023-05-02T05:37:56;101249.59;;;12.66;50.95
66742;BME280;53654;54.152;19.432;2023-05-02T05:40:24;101246.77;;;12.67;51.13
66742;BME280;53654;54.152;19.432;2023-05-02T05:42:56;101243.95;;;12.69;51.38
66742;BME280;53654;54.152;19.432;2023-05-02T05:45:28;101239.95;;;12.67;51.62
66742;BME280;53654;54.152;19.432;2023-05-02T05:47:56;101245.35;;;12.69;51.88
66742;BME280;53654;54.152;19.432;2023-05-02T05:50:26;101242.89;;;12.72;52.32
66742;BME280;53654;54.152;19.432;2023-05-02T05:52:55;101240.04;;;12.75;52.41
66742;BME280;53654;54.152;19.432;2023-05-02T05:55:26;101233.23;;;12.74;52.01
66742;BME280;53654;54.152;19.432;2023-05-02T05:57:54;101230.27;;;12.72;52.27
66742;BME280;53654;54.152;19.432;2023-05-02T06:00:23;101244.48;;;12.70;52.67
66742;BME280;53654;54.152;19.432;2023-05-02T06:02:51;101243.77;;;12.70;53.36
66742;BME280;53654;54.152;19.432;2023-05-02T06:05:28;101247.27;;;12.70;54.44
66742;BME280;53654;54.152;19.432;2023-05-02T06:07:57;101247.24;;;12.72;54.88
66742;BME280;53654;54.152;19.432;2023-05-02T06:10:26;101244.61;;;12.74;54.40
66742;BME280;53654;54.152;19.432;2023-05-02T06:12:54;101242.83;;;12.77;54.58
66742;BME280;53654;54.152;19.432;2023-05-02T06:15:26;101242.80;;;12.80;54.71
66742;BME280;53654;54.152;19.432;2023-05-02T06:17:54;101244.17;;;12.83;54.71
66742;BME280;53654;54.152;19.432;2023-05-02T06:20:22;101243.81;;;12.85;54.73
66742;BME280;53654;54.152;19.432;2023-05-02T06:22:50;101244.48;;;12.87;54.87
66742;BME280;53654;54.152;19.432;2023-05-02T06:25:18;101250.95;;;12.87;54.82
66742;BME280;53654;54.152;19.432;2023-05-02T06:27:46;101249.75;;;12.85;54.63
66742;BME280;53654;54.152;19.432;2023-05-02T06:30:14;101257.60;;;12.88;54.61
66742;BME280;53654;54.152;19.432;2023-05-02T06:32:42;101251.98;;;12.88;54.60
66742;BME280;53654;54.152;19.432;2023-05-02T06:35:11;101251.11;;;12.89;54.77
66742;BME280;53654;54.152;19.432;2023-05-02T06:37:39;101250.40;;;12.90;54.85
66742;BME280;53654;54.152;19.432;2023-05-02T06:40:08;101256.35;;;12.90;55.17
66742;BME280;53654;54.152;19.432;2023-05-02T06:42:36;101258.29;;;12.90;55.34
66742;BME280;53654;54.152;19.432;2023-05-02T06:45:05;101263.33;;;12.93;55.50
66742;BME280;53654;54.152;19.432;2023-05-02T06:47:33;101268.04;;;12.95;55.81
66742;BME280;53654;54.152;19.432;2023-05-02T06:50:01;101273.08;;;12.99;55.47
66742;BME280;53654;54.152;19.432;2023-05-02T06:52:30;101278.97;;;13.06;55.39
66742;BME280;53654;54.152;19.432;2023-05-02T06:54:58;101282.24;;;13.10;55.55
66742;BME280;53654;54.152;19.432;2023-05-02T06:57:26;101286.92;;;13.18;55.51
66742;BME280;53654;54.152;19.432;2023-05-02T06:59:54;101288.61;;;13.24;56.05
66742;BME280;53654;54.152;19.432;2023-05-02T07:02:22;101295.73;;;13.30;56.31
66742;BME280;53654;54.152;19.432;2023-05-02T07:04:51;101294.83;;;13.34;56.66
66742;BME280;53654;54.152;19.432;2023-05-02T07:07:19;101300.58;;;13.35;56.72
66742;BME280;53654;54.152;19.432;2023-05-02T07:09:48;101299.00;;;13.35;56.99
66742;BME280;53654;54.152;19.432;2023-05-02T07:12:16;101301.08;;;13.37;57.24
66742;BME280;53654;54.152;19.432;2023-05-02T07:14:44;101306.48;;;13.41;57.40
66742;BME280;53654;54.152;19.432;2023-05-02T07:17:13;101307.33;;;13.43;57.61
66742;BME280;53654;54.152;19.432;2023-05-02T07:19:42;101309.27;;;13.41;57.68
66742;BME280;53654;54.152;19.432;2023-05-02T07:22:12;101316.50;;;13.37;57.74
66742;BME280;53654;54.152;19.432;2023-05-02T07:24:40;101323.75;;;13.32;58.21
66742;BME280;53654;54.152;19.432;2023-05-02T07:27:09;101323.95;;;13.30;58.15
66742;BME280;53654;54.152;19.432;2023-05-02T07:29:38;101327.27;;;13.31;58.60
66742;BME280;53654;54.152;19.432;2023-05-02T07:32:06;101331.06;;;13.36;59.15
66742;BME280;53654;54.152;19.432;2023-05-02T07:34:34;101336.75;;;13.45;59.14
66742;BME280;53654;54.152;19.432;2023-05-02T07:37:03;101333.88;;;13.51;59.22
66742;BME280;53654;54.152;19.432;2023-05-02T07:39:32;101331.20;;;13.56;59.31
66742;BME280;53654;54.152;19.432;2023-05-02T07:42:00;101330.95;;;13.62;59.19
66742;BME280;53654;54.152;19.432;2023-05-02T07:44:31;101334.01;;;13.70;59.08
66742;BME280;53654;54.152;19.432;2023-05-02T07:47:00;101337.26;;;13.77;59.10
66742;BME280;53654;54.152;19.432;2023-05-02T07:49:28;101342.95;;;13.84;59.24
66742;BME280;53654;54.152;19.432;2023-05-02T07:51:57;101348.30;;;13.91;59.11
66742;BME280;53654;54.152;19.432;2023-05-02T07:54:25;101350.49;;;13.98;59.05
66742;BME280;53654;54.152;19.432;2023-05-02T07:56:53;101349.35;;;14.04;58.61
66742;BME280;53654;54.152;19.432;2023-05-02T07:59:21;101352.95;;;14.11;58.66
66742;BME280;53654;54.152;19.432;2023-05-02T08:01:49;101352.19;;;14.15;59.07
66742;BME280;53654;54.152;19.432;2023-05-02T08:04:17;101357.94;;;14.18;58.80
66742;BME280;53654;54.152;19.432;2023-05-02T08:06:46;101357.60;;;14.18;59.87
66742;BME280;53654;54.152;19.432;2023-05-02T08:09:14;101360.74;;;14.18;60.29
66742;BME280;53654;54.152;19.432;2023-05-02T08:11:42;101367.58;;;14.19;59.84
66742;BME280;53654;54.152;19.432;2023-05-02T08:14:10;101364.94;;;14.20;59.64
66742;BME280;53654;54.152;19.432;2023-05-02T08:16:38;101363.33;;;14.22;59.04
66742;BME280;53654;54.152;19.432;2023-05-02T08:19:07;101366.98;;;14.24;59.49
66742;BME280;53654;54.152;19.432;2023-05-02T08:21:35;101358.90;;;14.25;58.94
66742;BME280;53654;54.152;19.432;2023-05-02T08:24:04;101358.91;;;14.25;58.49
66742;BME280;53654;54.152;19.432;2023-05-02T08:26:32;101364.00;;;14.25;57.88
66742;BME280;53654;54.152;19.432;2023-05-02T08:29:00;101370.48;;;14.26;57.32
66742;BME280;53654;54.152;19.432;2023-05-02T08:31:29;101369.08;;;14.25;58.22
66742;BME280;53654;54.152;19.432;2023-05-02T08:33:58;101375.55;;;14.26;57.74
66742;BME280;53654;54.152;19.432;2023-05-02T08:36:26;101376.60;;;14.27;57.71
66742;BME280;53654;54.152;19.432;2023-05-02T08:38:55;101377.13;;;14.26;57.51
66742;BME280;53654;54.152;19.432;2023-05-02T08:41:24;101377.98;;;14.28;57.54
66742;BME280;53654;54.152;19.432;2023-05-02T08:43:53;101376.73;;;14.30;57.62
66742;BME280;53654;54.152;19.432;2023-05-02T08:46:21;101379.88;;;14.31;57.30
66742;BME280;53654;54.152;19.432;2023-05-02T08:48:51;101385.11;;;14.33;57.42
66742;BME280;53654;54.152;19.432;2023-05-02T08:51:22;101386.13;;;14.35;57.67
66742;BME280;53654;54.152;19.432;2023-05-02T08:53:51;101381.70;;;14.38;57.66
66742;BME280;53654;54.152;19.432;2023-05-02T08:56:20;101384.98;;;14.44;57.56
66742;BME280;53654;54.152;19.432;2023-05-02T08:58:48;101384.35;;;14.52;57.63
66742;BME280;53654;54.152;19.432;2023-05-02T09:01:18;101381.27;;;14.58;56.99
66742;BME280;53654;54.152;19.432;2023-05-02T09:03:49;101388.02;;;14.65;56.17
66742;BME280;53654;54.152;19.432;2023-05-02T09:06:19;101394.61;;;14.71;55.98
66742;BME280;53654;54.152;19.432;2023-05-02T09:08:50;101395.71;;;14.79;55.36
66742;BME280;53654;54.152;19.432;2023-05-02T09:11:21;101396.90;;;14.81;55.05
66742;BME280;53654;54.152;19.432;2023-05-02T09:13:51;101397.16;;;14.87;56.22
66742;BME280;53654;54.152;19.432;2023-05-02T09:16:21;101397.44;;;14.91;55.38
66742;BME280;53654;54.152;19.432;2023-05-02T09:18:55;101392.25;;;14.97;54.68
66742;BME280;53654;54.152;19.432;2023-05-02T09:21:25;101392.27;;;15.06;55.49
66742;BME280;53654;54.152;19.432;2023-05-02T09:23:55;101394.86;;;15.19;55.40
66742;BME280;53654;54.152;19.432;2023-05-02T09:26:25;101399.70;;;15.34;55.11
66742;BME280;53654;54.152;19.432;2023-05-02T09:29:02;101394.52;;;15.48;54.86
66742;BME280;53654;54.152;19.432;2023-05-02T09:31:33;101403.33;;;15.59;53.60
66742;BME280;53654;54.152;19.432;2023-05-02T09:34:23;101404.83;;;15.65;53.52
66742;BME280;53654;54.152;19.432;2023-05-02T09:36:51;101411.11;;;15.77;53.87
66742;BME280;53654;54.152;19.432;2023-05-02T09:39:26;101407.79;;;15.93;54.11
66742;BME280;53654;54.152;19.432;2023-05-02T09:41:58;101413.85;;;16.15;53.38
66742;BME280;53654;54.152;19.432;2023-05-02T09:44:35;101422.90;;;16.36;53.00
66742;BME280;53654;54.152;19.432;2023-05-02T09:47:04;101423.64;;;16.59;52.66
66742;BME280;53654;54.152;19.432;2023-05-02T09:49:44;101431.77;;;16.82;52.65
66742;BME280;53654;54.152;19.432;2023-05-02T09:52:15;101432.58;;;16.99;50.78
66742;BME280;53654;54.152;19.432;2023-05-02T09:54:44;101432.48;;;17.18;50.74
66742;BME280;53654;54.152;19.432;2023-05-02T09:57:18;101430.42;;;17.36;50.04
66742;BME280;53654;54.152;19.432;2023-05-02T09:59:55;101431.48;;;17.50;49.06
66742;BME280;53654;54.152;19.432;2023-05-02T10:02:29;101433.89;;;17.66;49.10
66742;BME280;53654;54.152;19.432;2023-05-02T10:04:59;101434.61;;;17.79;50.06
66742;BME280;53654;54.152;19.432;2023-05-02T10:07:29;101435.40;;;17.89;49.01
66742;BME280;53654;54.152;19.432;2023-05-02T10:09:59;101438.06;;;18.01;49.66
66742;BME280;53654;54.152;19.432;2023-05-02T10:12:29;101437.54;;;18.13;48.90
66742;BME280;53654;54.152;19.432;2023-05-02T10:15:02;101435.15;;;18.22;47.73
66742;BME280;53654;54.152;19.432;2023-05-02T10:17:38;101437.67;;;18.32;47.13
66742;BME280;53654;54.152;19.432;2023-05-02T10:20:09;101440.94;;;18.42;46.47
66742;BME280;53654;54.152;19.432;2023-05-02T10:22:39;101441.45;;;18.42;47.06
66742;BME280;53654;54.152;19.432;2023-05-02T10:25:07;101444.39;;;18.44;48.15
66742;BME280;53654;54.152;19.432;2023-05-02T10:27:36;101443.60;;;18.53;47.34
66742;BME280;53654;54.152;19.432;2023-05-02T10:30:05;101446.48;;;18.63;47.26
66742;BME280;53654;54.152;19.432;2023-05-02T10:32:35;101448.77;;;18.69;46.29
66742;BME280;53654;54.152;19.432;2023-05-02T10:35:05;101444.52;;;18.70;45.77
66742;BME280;53654;54.152;19.432;2023-05-02T10:37:35;101444.02;;;18.68;45.44
66742;BME280;53654;54.152;19.432;2023-05-02T10:40:09;101449.73;;;18.67;45.66
66742;BME280;53654;54.152;19.432;2023-05-02T10:42:41;101446.39;;;18.66;44.45
66742;BME280;53654;54.152;19.432;2023-05-02T10:45:12;101445.33;;;18.66;45.44
66742;BME280;53654;54.152;19.432;2023-05-02T10:48:16;101444.77;;;18.67;45.96
66742;BME280;53654;54.152;19.432;2023-05-02T10:50:45;101444.83;;;18.65;46.43
66742;BME280;53654;54.152;19.432;2023-05-02T10:53:44;101447.66;;;18.65;46.50
66742;BME280;53654;54.152;19.432;2023-05-02T10:56:16;101447.56;;;18.63;47.83
66742;BME280;53654;54.152;19.432;2023-05-02T10:58:46;101439.25;;;18.68;47.67
66742;BME280;53654;54.152;19.432;2023-05-02T11:03:54;101429.98;;;18.77;48.17
66742;BME280;53654;54.152;19.432;2023-05-02T11:06:27;101432.27;;;18.88;45.91
66742;BME280;53654;54.152;19.432;2023-05-02T11:11:46;101436.65;;;19.06;44.69
66742;BME280;53654;54.152;19.432;2023-05-02T11:17:07;101439.46;;;19.27;44.43
66742;BME280;53654;54.152;19.432;2023-05-02T11:24:48;101471.65;;;19.22;43.91
66742;BME280;53654;54.152;19.432;2023-05-02T11:29:58;101481.64;;;19.14;44.22
66742;BME280;53654;54.152;19.432;2023-05-02T11:37:55;101514.98;;;18.83;44.88
66742;BME280;53654;54.152;19.432;2023-05-02T11:40:25;101525.33;;;18.68;44.86
66742;BME280;53654;54.152;19.432;2023-05-02T11:42:55;101537.64;;;18.51;45.19
66742;BME280;53654;54.152;19.432;2023-05-02T11:45:36;101538.43;;;18.29;45.49
66742;BME280;53654;54.152;19.432;2023-05-02T11:48:05;101546.30;;;18.00;45.74
66742;BME280;53654;54.152;19.432;2023-05-02T11:50:41;101546.46;;;17.74;46.30
66742;BME280;53654;54.152;19.432;2023-05-02T11:53:21;101560.87;;;17.53;47.22
66742;BME280;53654;54.152;19.432;2023-05-02T11:55:52;101563.71;;;17.31;47.36
66742;BME280;53654;54.152;19.432;2023-05-02T11:58:23;101568.85;;;17.06;47.79
66742;BME280;53654;54.152;19.432;2023-05-02T12:00:52;101573.35;;;16.86;48.17
66742;BME280;53654;54.152;19.432;2023-05-02T12:03:26;101580.36;;;16.71;48.39
66742;BME280;53654;54.152;19.432;2023-05-02T12:05:56;101584.29;;;16.58;49.00
66742;BME280;53654;54.152;19.432;2023-05-02T12:08:26;101586.58;;;16.49;48.71
66742;BME280;53654;54.152;19.432;2023-05-02T12:10:55;101589.02;;;16.42;48.78
66742;BME280;53654;54.152;19.432;2023-05-02T12:13:25;101598.61;;;16.37;48.59
66742;BME280;53654;54.152;19.432;2023-05-02T12:15:53;101600.85;;;16.30;48.36
66742;BME280;53654;54.152;19.432;2023-05-02T12:18:23;101609.56;;;16.26;49.14
66742;BME280;53654;54.152;19.432;2023-05-02T12:20:52;101616.95;;;16.26;48.99
66742;BME280;53654;54.152;19.432;2023-05-02T12:23:24;101624.38;;;16.24;49.29
66742;BME280;53654;54.152;19.432;2023-05-02T12:25:53;101628.30;;;16.21;50.25
66742;BME280;53654;54.152;19.432;2023-05-02T12:28:21;101636.95;;;16.20;51.03
66742;BME280;53654;54.152;19.432;2023-05-02T12:30:50;101642.62;;;16.18;51.50
66742;BME280;53654;54.152;19.432;2023-05-02T12:33:18;101661.74;;;16.11;53.11
66742;BME280;53654;54.152;19.432;2023-05-02T12:35:46;101675.09;;;15.92;54.46
66742;BME280;53654;54.152;19.432;2023-05-02T12:38:17;101687.27;;;15.65;55.88
66742;BME280;53654;54.152;19.432;2023-05-02T12:40:52;101689.16;;;15.27;56.60
66742;BME280;53654;54.152;19.432;2023-05-02T12:43:20;101705.82;;;14.85;57.95
66742;BME280;53654;54.152;19.432;2023-05-02T12:45:49;101713.21;;;14.48;59.03
66742;BME280;53654;54.152;19.432;2023-05-02T12:48:26;101720.11;;;14.19;59.96
66742;BME280;53654;54.152;19.432;2023-05-02T12:50:54;101720.80;;;13.96;60.81
66742;BME280;53654;54.152;19.432;2023-05-02T12:53:42;101730.56;;;13.78;61.73
66742;BME280;53654;54.152;19.432;2023-05-02T12:56:11;101734.39;;;13.52;62.65
66742;BME280;53654;54.152;19.432;2023-05-02T12:58:44;101742.92;;;13.26;63.99
66742;BME280;53654;54.152;19.432;2023-05-02T13:01:13;101746.63;;;13.10;64.56
66742;BME280;53654;54.152;19.432;2023-05-02T13:03:42;101749.10;;;13.00;65.09
66742;BME280;53654;54.152;19.432;2023-05-02T13:06:11;101761.40;;;12.84;65.82
66742;BME280;53654;54.152;19.432;2023-05-02T13:08:39;101762.30;;;12.67;66.46
66742;BME280;53654;54.152;19.432;2023-05-02T13:11:07;101764.75;;;12.58;67.06
66742;BME280;53654;54.152;19.432;2023-05-02T13:13:35;101769.30;;;12.55;67.37
66742;BME280;53654;54.152;19.432;2023-05-02T13:16:04;101773.68;;;12.53;67.80
66742;BME280;53654;54.152;19.432;2023-05-02T13:18:32;101775.08;;;12.56;67.86
66742;BME280;53654;54.152;19.432;2023-05-02T13:21:00;101787.33;;;12.56;68.19
66742;BME280;53654;54.152;19.432;2023-05-02T13:23:29;101788.03;;;12.54;68.06
66742;BME280;53654;54.152;19.432;2023-05-02T13:25:57;101791.88;;;12.55;68.00
66742;BME280;53654;54.152;19.432;2023-05-02T13:28:25;101795.91;;;12.59;67.99
66742;BME280;53654;54.152;19.432;2023-05-02T13:30:53;101798.71;;;12.63;67.75
66742;BME280;53654;54.152;19.432;2023-05-02T13:33:21;101803.44;;;12.65;67.58
66742;BME280;53654;54.152;19.432;2023-05-02T13:35:49;101810.96;;;12.62;67.38
66742;BME280;53654;54.152;19.432;2023-05-02T13:38:17;101811.84;;;12.59;67.24
66742;BME280;53654;54.152;19.432;2023-05-02T13:40:45;101815.86;;;12.59;66.91
66742;BME280;53654;54.152;19.432;2023-05-02T13:43:13;101815.52;;;12.58;66.42
66742;BME280;53654;54.152;19.432;2023-05-02T13:45:42;101821.29;;;12.58;65.86